sensor_id;sensor_type;location;lat;lon;timestamp;pressure;altitude;pressure_sealevel;temperature;humidity
68807;BME280;55800;54.272;18.558;2022-10-18T00:01:30;101524.00;;;17.32;72.56
68807;BME280;55800;54.272;18.558;2022-10-18T00:03:59;101521.34;;;17.31;72.44
68807;BME280;55800;54.272;18.558;2022-10-18T00:06:28;101531.38;;;17.29;72.55
68807;BME280;55800;54.272;18.558;2022-10-18T00:08:57;101531.47;;;17.27;72.61
68807;BME280;55800;54.272;18.558;2022-10-18T00:11:28;101522.50;;;17.27;72.65
68807;BME280;55800;54.272;18.558;2022-10-18T00:13:57;101522.69;;;17.24;72.49
68807;BME280;55800;54.272;18.558;2022-10-18T00:16:26;101538.00;;;17.23;72.60
68807;BME280;55800;54.272;18.558;2022-10-18T00:18:55;101524.66;;;17.20;72.70
68807;BME280;55800;54.272;18.558;2022-10-18T00:21:25;101534.63;;;17.20;72.57
68807;BME280;55800;54.272;18.558;2022-10-18T00:23:54;101535.66;;;17.17;72.56
68807;BME280;55800;54.272;18.558;2022-10-18T00:26:25;101536.69;;;17.14;72.82
68807;BME280;55800;54.272;18.558;2022-10-18T00:28:58;101545.72;;;17.13;72.68
68807;BME280;55800;54.272;18.558;2022-10-18T00:31:30;101546.72;;;17.12;72.52
68807;BME280;55800;54.272;18.558;2022-10-18T00:34:01;101545.91;;;17.10;72.71
68807;BME280;55800;54.272;18.558;2022-10-18T00:36:32;101549.50;;;17.11;72.77
68807;BME280;55800;54.272;18.558;2022-10-18T00:39:03;101562.13;;;17.10;72.70
68807;BME280;55800;54.272;18.558;2022-10-18T00:41:34;101551.31;;;17.10;72.59
68807;BME280;55800;54.272;18.558;2022-10-18T00:46:53;101549.41;;;17.12;73.17
68807;BME280;55800;54.272;18.558;2022-10-18T00:49:28;101552.91;;;17.14;73.28
68807;BME280;55800;54.272;18.558;2022-10-18T00:52:01;101545.44;;;17.20;73.61
68807;BME280;55800;54.272;18.558;2022-10-18T00:54:35;101537.22;;;17.21;73.19
68807;BME280;55800;54.272;18.558;2022-10-18T00:57:06;101532.69;;;17.22;73.74
68807;BME280;55800;54.272;18.558;2022-10-18T00:59:37;101528.69;;;17.29;73.84
68807;BME280;55800;54.272;18.558;2022-10-18T01:02:07;101542.97;;;17.31;73.27
68807;BME280;55800;54.272;18.558;2022-10-18T01:04:37;101537.66;;;17.29;73.44
68807;BME280;55800;54.272;18.558;2022-10-18T01:07:09;101535.75;;;17.31;73.60
68807;BME280;55800;54.272;18.558;2022-10-18T01:09:49;101530.09;;;17.36;73.51
68807;BME280;55800;54.272;18.558;2022-10-18T01:12:24;101527.31;;;17.37;73.62
68807;BME280;55800;54.272;18.558;2022-10-18T01:15:04;101521.75;;;17.40;73.88
68807;BME280;55800;54.272;18.558;2022-10-18T01:17:46;101519.72;;;17.44;74.11
68807;BME280;55800;54.272;18.558;2022-10-18T01:20:37;101523.16;;;17.47;73.65
68807;BME280;55800;54.272;18.558;2022-10-18T01:23:16;101534.69;;;17.51;73.76
68807;BME280;55800;54.272;18.558;2022-10-18T01:25:52;101528.31;;;17.52;73.85
68807;BME280;55800;54.272;18.558;2022-10-18T01:28:37;101527.38;;;17.53;73.71
68807;BME280;55800;54.272;18.558;2022-10-18T01:31:15;101530.94;;;17.53;73.77
68807;BME280;55800;54.272;18.558;2022-10-18T01:33:52;101536.09;;;17.58;73.57
68807;BME280;55800;54.272;18.558;2022-10-18T01:36:27;101541.66;;;17.55;73.78
68807;BME280;55800;54.272;18.558;2022-10-18T01:39:00;101542.72;;;17.52;73.60
68807;BME280;55800;54.272;18.558;2022-10-18T01:41:30;101546.28;;;17.53;73.62
68807;BME280;55800;54.272;18.558;2022-10-18T01:44:01;101539.91;;;17.54;73.78
68807;BME280;55800;54.272;18.558;2022-10-18T01:46:33;101539.06;;;17.53;73.66
68807;BME280;55800;54.272;18.558;2022-10-18T01:49:04;101530.84;;;17.55;73.40
68807;BME280;55800;54.272;18.558;2022-10-18T01:51:34;101544.53;;;17.52;73.52
68807;BME280;55800;54.272;18.558;2022-10-18T01:54:04;101530.16;;;17.51;73.46
68807;BME280;55800;54.272;18.558;2022-10-18T01:56:40;101522.28;;;17.47;73.56
68807;BME280;55800;54.272;18.558;2022-10-18T02:02:18;101525.13;;;17.44;73.48
68807;BME280;55800;54.272;18.558;2022-10-18T02:04:59;101527.78;;;17.45;73.90
68807;BME280;55800;54.272;18.558;2022-10-18T02:07:37;101529.66;;;17.43;73.76
68807;BME280;55800;54.272;18.558;2022-10-18T02:10:11;101518.16;;;17.40;73.79
68807;BME280;55800;54.272;18.558;2022-10-18T02:12:44;101525.56;;;17.36;73.70
68807;BME280;55800;54.272;18.558;2022-10-18T02:15:16;101527.50;;;17.34;73.52
68807;BME280;55800;54.272;18.558;2022-10-18T02:17:48;101529.31;;;17.34;73.83
68807;BME280;55800;54.272;18.558;2022-10-18T02:20:21;101528.63;;;17.30;73.76
68807;BME280;55800;54.272;18.558;2022-10-18T02:22:54;101535.06;;;17.28;73.80
68807;BME280;55800;54.272;18.558;2022-10-18T02:25:27;101540.81;;;17.22;73.66
68807;BME280;55800;54.272;18.558;2022-10-18T02:27:58;101536.34;;;17.21;73.80
68807;BME280;55800;54.272;18.558;2022-10-18T02:34:04;101556.72;;;17.10;73.60
68807;BME280;55800;54.272;18.558;2022-10-18T02:36:39;101569.44;;;17.08;73.55
68807;BME280;55800;54.272;18.558;2022-10-18T02:39:13;101568.75;;;17.05;73.76
68807;BME280;55800;54.272;18.558;2022-10-18T02:41:43;101578.69;;;17.04;73.72
68807;BME280;55800;54.272;18.558;2022-10-18T02:44:12;101575.19;;;17.02;73.51
68807;BME280;55800;54.272;18.558;2022-10-18T02:46:41;101579.00;;;16.98;73.77
68807;BME280;55800;54.272;18.558;2022-10-18T02:49:12;101581.84;;;16.95;73.72
68807;BME280;55800;54.272;18.558;2022-10-18T02:51:41;101588.38;;;16.91;73.76
68807;BME280;55800;54.272;18.558;2022-10-18T02:54:10;101585.69;;;16.91;73.55
68807;BME280;55800;54.272;18.558;2022-10-18T02:56:39;101584.00;;;16.89;73.80
68807;BME280;55800;54.272;18.558;2022-10-18T02:59:09;101586.78;;;16.87;73.67
68807;BME280;55800;54.272;18.558;2022-10-18T03:01:38;101586.94;;;16.84;73.75
68807;BME280;55800;54.272;18.558;2022-10-18T03:04:07;101584.41;;;16.81;73.77
68807;BME280;55800;54.272;18.558;2022-10-18T03:06:38;101577.34;;;16.79;73.64
68807;BME280;55800;54.272;18.558;2022-10-18T03:09:08;101587.44;;;16.75;73.66
68807;BME280;55800;54.272;18.558;2022-10-18T03:11:37;101586.63;;;16.73;73.63
68807;BME280;55800;54.272;18.558;2022-10-18T03:14:06;101575.03;;;16.71;73.55
68807;BME280;55800;54.272;18.558;2022-10-18T03:16:35;101579.63;;;16.69;73.39
68807;BME280;55800;54.272;18.558;2022-10-18T03:19:04;101575.34;;;16.65;73.59
68807;BME280;55800;54.272;18.558;2022-10-18T03:21:33;101577.25;;;16.63;73.57
68807;BME280;55800;54.272;18.558;2022-10-18T03:24:05;101577.25;;;16.63;73.56
68807;BME280;55800;54.272;18.558;2022-10-18T03:26:34;101582.84;;;16.60;73.47
68807;BME280;55800;54.272;18.558;2022-10-18T03:29:04;101582.97;;;16.57;73.51
68807;BME280;55800;54.272;18.558;2022-10-18T03:31:33;101579.50;;;16.55;73.73
68807;BME280;55800;54.272;18.558;2022-10-18T03:34:02;101583.28;;;16.51;73.65
68807;BME280;55800;54.272;18.558;2022-10-18T03:36:31;101578.00;;;16.48;73.32
68807;BME280;55800;54.272;18.558;2022-10-18T03:39:03;101574.50;;;16.46;73.60
68807;BME280;55800;54.272;18.558;2022-10-18T03:41:32;101573.81;;;16.42;73.73
68807;BME280;55800;54.272;18.558;2022-10-18T03:44:01;101579.28;;;16.41;73.66
68807;BME280;55800;54.272;18.558;2022-10-18T03:46:30;101587.53;;;16.38;73.33
68807;BME280;55800;54.272;18.558;2022-10-18T03:48:59;101595.72;;;16.36;73.56
68807;BME280;55800;54.272;18.558;2022-10-18T03:51:29;101597.53;;;16.36;73.63
68807;BME280;55800;54.272;18.558;2022-10-18T03:53:58;101593.16;;;16.33;73.63
68807;BME280;55800;54.272;18.558;2022-10-18T03:56:29;101584.34;;;16.30;73.54
68807;BME280;55800;54.272;18.558;2022-10-18T03:58:58;101589.75;;;16.30;73.41
68807;BME280;55800;54.272;18.558;2022-10-18T04:01:27;101597.06;;;16.28;73.26
68807;BME280;55800;54.272;18.558;2022-10-18T04:03:56;101607.97;;;16.25;73.43
68807;BME280;55800;54.272;18.558;2022-10-18T04:06:25;101615.28;;;16.23;73.66
68807;BME280;55800;54.272;18.558;2022-10-18T04:08:54;101612.66;;;16.21;73.30
68807;BME280;55800;54.272;18.558;2022-10-18T04:11:24;101617.34;;;16.18;73.59
68807;BME280;55800;54.272;18.558;2022-10-18T04:13:54;101600.38;;;16.16;73.37
68807;BME280;55800;54.272;18.558;2022-10-18T04:16:24;101612.09;;;16.15;73.23
68807;BME280;55800;54.272;18.558;2022-10-18T04:18:53;101601.44;;;16.12;73.35
68807;BME280;55800;54.272;18.558;2022-10-18T04:21:22;101622.22;;;16.10;73.49
68807;BME280;55800;54.272;18.558;2022-10-18T04:23:51;101615.97;;;16.09;73.21
68807;BME280;55800;54.272;18.558;2022-10-18T04:26:20;101613.34;;;16.08;73.46
68807;BME280;55800;54.272;18.558;2022-10-18T04:28:49;101608.03;;;16.06;73.34
68807;BME280;55800;54.272;18.558;2022-10-18T04:31:20;101620.72;;;16.04;73.31
68807;BME280;55800;54.272;18.558;2022-10-18T04:33:49;101620.00;;;16.01;73.28
68807;BME280;55800;54.272;18.558;2022-10-18T04:36:18;101622.75;;;15.99;73.15
68807;BME280;55800;54.272;18.558;2022-10-18T04:38:47;101635.38;;;15.99;73.47
68807;BME280;55800;54.272;18.558;2022-10-18T04:41:16;101646.38;;;15.94;73.34
68807;BME280;55800;54.272;18.558;2022-10-18T04:43:45;101651.84;;;15.93;73.27
68807;BME280;55800;54.272;18.558;2022-10-18T04:46:15;101637.53;;;15.91;73.27
68807;BME280;55800;54.272;18.558;2022-10-18T04:48:45;101634.06;;;15.89;73.34
68807;BME280;55800;54.272;18.558;2022-10-18T04:51:15;101614.38;;;15.87;73.14
68807;BME280;55800;54.272;18.558;2022-10-18T04:53:44;101609.16;;;15.84;73.05
68807;BME280;55800;54.272;18.558;2022-10-18T04:56:13;101615.47;;;15.83;73.10
68807;BME280;55800;54.272;18.558;2022-10-18T04:58:42;101637.13;;;15.81;73.14
68807;BME280;55800;54.272;18.558;2022-10-18T05:01:11;101657.00;;;15.79;73.08
68807;BME280;55800;54.272;18.558;2022-10-18T05:03:40;101679.56;;;15.78;73.12
68807;BME280;55800;54.272;18.558;2022-10-18T05:06:11;101675.22;;;15.74;73.23
68807;BME280;55800;54.272;18.558;2022-10-18T05:08:40;101674.41;;;15.72;73.08
68807;BME280;55800;54.272;18.558;2022-10-18T05:11:10;101652.03;;;15.70;73.21
68807;BME280;55800;54.272;18.558;2022-10-18T05:13:39;101643.09;;;15.69;72.97
68807;BME280;55800;54.272;18.558;2022-10-18T05:16:08;101643.09;;;15.69;73.36
68807;BME280;55800;54.272;18.558;2022-10-18T05:18:37;101653.00;;;15.69;73.26
68807;BME280;55800;54.272;18.558;2022-10-18T05:21:06;101664.72;;;15.68;73.22
68807;BME280;55800;54.272;18.558;2022-10-18T05:23:37;101653.09;;;15.67;73.31
68807;BME280;55800;54.272;18.558;2022-10-18T05:26:07;101649.50;;;15.67;73.25
68807;BME280;55800;54.272;18.558;2022-10-18T05:28:36;101654.91;;;15.67;73.17
68807;BME280;55800;54.272;18.558;2022-10-18T05:31:09;101649.50;;;15.67;73.31
68807;BME280;55800;54.272;18.558;2022-10-18T05:33:39;101659.50;;;15.65;73.07
68807;BME280;55800;54.272;18.558;2022-10-18T05:36:09;101659.50;;;15.65;73.14
68807;BME280;55800;54.272;18.558;2022-10-18T05:38:41;101672.97;;;15.65;73.10
68807;BME280;55800;54.272;18.558;2022-10-18T05:41:11;101670.28;;;15.65;73.20
68807;BME280;55800;54.272;18.558;2022-10-18T05:43:40;101679.22;;;15.65;73.22
68807;BME280;55800;54.272;18.558;2022-10-18T05:46:10;101684.59;;;15.65;73.32
68807;BME280;55800;54.272;18.558;2022-10-18T05:48:42;101672.97;;;15.65;73.55
68807;BME280;55800;54.272;18.558;2022-10-18T05:51:12;101664.94;;;15.63;73.49
68807;BME280;55800;54.272;18.558;2022-10-18T05:53:42;101682.00;;;15.63;73.47
68807;BME280;55800;54.272;18.558;2022-10-18T05:56:12;101673.91;;;15.63;73.20
68807;BME280;55800;54.272;18.558;2022-10-18T05:58:41;101683.78;;;15.63;73.26
68807;BME280;55800;54.272;18.558;2022-10-18T06:01:10;101673.91;;;15.63;73.44
68807;BME280;55800;54.272;18.558;2022-10-18T06:03:39;101657.72;;;15.63;73.34
68807;BME280;55800;54.272;18.558;2022-10-18T06:06:10;101662.22;;;15.63;73.42
68807;BME280;55800;54.272;18.558;2022-10-18T06:08:40;101663.13;;;15.63;73.46
68807;BME280;55800;54.272;18.558;2022-10-18T06:11:13;101671.19;;;15.63;73.64
68807;BME280;55800;54.272;18.558;2022-10-18T06:13:43;101664.88;;;15.65;73.66
68807;BME280;55800;54.272;18.558;2022-10-18T06:16:14;101663.13;;;15.63;73.58
68807;BME280;55800;54.272;18.558;2022-10-18T06:18:47;101671.19;;;15.63;73.40
68807;BME280;55800;54.272;18.558;2022-10-18T06:21:16;101680.16;;;15.64;73.59
68807;BME280;55800;54.272;18.558;2022-10-18T06:23:48;101692.69;;;15.65;73.54
68807;BME280;55800;54.272;18.558;2022-10-18T06:26:18;101690.88;;;15.66;73.55
68807;BME280;55800;54.272;18.558;2022-10-18T06:28:47;101683.66;;;15.66;73.45
68807;BME280;55800;54.272;18.558;2022-10-18T06:31:17;101679.16;;;15.67;73.54
68807;BME280;55800;54.272;18.558;2022-10-18T06:33:48;101686.28;;;15.68;73.51
68807;BME280;55800;54.272;18.558;2022-10-18T06:36:18;101690.75;;;15.69;73.46
68807;BME280;55800;54.272;18.558;2022-10-18T06:38:49;101706.84;;;15.70;73.63
68807;BME280;55800;54.272;18.558;2022-10-18T06:41:20;101705.97;;;15.70;73.46
68807;BME280;55800;54.272;18.558;2022-10-18T06:43:50;101702.34;;;15.71;73.53
68807;BME280;55800;54.272;18.558;2022-10-18T06:46:20;101696.78;;;15.74;73.55
68807;BME280;55800;54.272;18.558;2022-10-18T06:48:49;101699.47;;;15.74;73.54
68807;BME280;55800;54.272;18.558;2022-10-18T06:51:18;101693.16;;;15.75;73.67
68807;BME280;55800;54.272;18.558;2022-10-18T06:53:47;101690.53;;;15.73;73.55
68807;BME280;55800;54.272;18.558;2022-10-18T06:56:34;101700.38;;;15.74;73.74
68807;BME280;55800;54.272;18.558;2022-10-18T06:59:04;101709.34;;;15.75;73.79
68807;BME280;55800;54.272;18.558;2022-10-18T07:01:34;101700.38;;;15.74;73.75
68807;BME280;55800;54.272;18.558;2022-10-18T07:04:03;101699.44;;;15.75;73.67
68807;BME280;55800;54.272;18.558;2022-10-18T07:06:33;101700.28;;;15.76;73.78
68807;BME280;55800;54.272;18.558;2022-10-18T07:09:02;101702.94;;;15.77;73.59
68807;BME280;55800;54.272;18.558;2022-10-18T07:11:33;101700.16;;;15.79;73.87
68807;BME280;55800;54.272;18.558;2022-10-18T07:14:02;101708.25;;;15.79;73.80
68807;BME280;55800;54.272;18.558;2022-10-18T07:16:32;101715.34;;;15.81;73.88
68807;BME280;55800;54.272;18.558;2022-10-18T07:19:02;101711.63;;;15.84;73.92
68807;BME280;55800;54.272;18.558;2022-10-18T07:21:31;101711.53;;;15.85;73.80
68807;BME280;55800;54.272;18.558;2022-10-18T07:24:00;101719.56;;;15.87;73.72
68807;BME280;55800;54.272;18.558;2022-10-18T07:26:30;101717.75;;;15.87;73.82
68807;BME280;55800;54.272;18.558;2022-10-18T07:29:04;101721.31;;;15.88;73.66
68807;BME280;55800;54.272;18.558;2022-10-18T07:31:34;101718.53;;;15.89;73.98
68807;BME280;55800;54.272;18.558;2022-10-18T07:34:05;101721.16;;;15.91;74.02
68807;BME280;55800;54.272;18.558;2022-10-18T07:36:35;101716.56;;;15.93;73.77
68807;BME280;55800;54.272;18.558;2022-10-18T07:39:04;101714.75;;;15.93;73.96
68807;BME280;55800;54.272;18.558;2022-10-18T07:41:33;101721.91;;;15.94;73.89
68807;BME280;55800;54.272;18.558;2022-10-18T07:44:04;101726.28;;;15.97;73.76
68807;BME280;55800;54.272;18.558;2022-10-18T07:46:33;101723.53;;;15.98;74.03
68807;BME280;55800;54.272;18.558;2022-10-18T07:49:02;101736.03;;;15.99;74.06
68807;BME280;55800;54.272;18.558;2022-10-18T07:51:32;101737.72;;;16.02;73.79
68807;BME280;55800;54.272;18.558;2022-10-18T07:54:02;101731.41;;;16.03;74.07
68807;BME280;55800;54.272;18.558;2022-10-18T07:56:32;101739.41;;;16.04;73.79
68807;BME280;55800;54.272;18.558;2022-10-18T07:59:02;101740.22;;;16.06;74.10
68807;BME280;55800;54.272;18.558;2022-10-18T08:01:32;101741.09;;;16.07;73.69
68807;BME280;55800;54.272;18.558;2022-10-18T08:04:02;101750.94;;;16.08;73.91
68807;BME280;55800;54.272;18.558;2022-10-18T08:06:35;101744.69;;;16.07;73.80
68807;BME280;55800;54.272;18.558;2022-10-18T08:09:04;101745.53;;;16.08;73.62
68807;BME280;55800;54.272;18.558;2022-10-18T08:11:34;101736.50;;;16.09;73.77
68807;BME280;55800;54.272;18.558;2022-10-18T08:14:04;101732.00;;;16.09;73.47
68807;BME280;55800;54.272;18.558;2022-10-18T08:16:34;101730.13;;;16.10;73.42
68807;BME280;55800;54.272;18.558;2022-10-18T08:19:03;101731.09;;;16.09;73.57
68807;BME280;55800;54.272;18.558;2022-10-18T08:21:32;101726.72;;;16.06;73.67
68807;BME280;55800;54.272;18.558;2022-10-18T08:24:01;101728.53;;;16.06;73.49
68807;BME280;55800;54.272;18.558;2022-10-18T08:26:30;101721.31;;;16.06;73.53
68807;BME280;55800;54.272;18.558;2022-10-18T08:28:59;101712.31;;;16.07;73.49
68807;BME280;55800;54.272;18.558;2022-10-18T08:31:49;101702.38;;;16.08;73.59
68807;BME280;55800;54.272;18.558;2022-10-18T08:34:19;101703.16;;;16.10;74.00
68807;BME280;55800;54.272;18.558;2022-10-18T08:36:48;101705.72;;;16.13;73.72
68807;BME280;55800;54.272;18.558;2022-10-18T08:39:17;101701.13;;;16.15;73.71
68807;BME280;55800;54.272;18.558;2022-10-18T08:42:14;101701.94;;;16.17;73.71
68807;BME280;55800;54.272;18.558;2022-10-18T08:44:47;101691.06;;;16.18;73.63
68807;BME280;55800;54.272;18.558;2022-10-18T08:47:20;101698.13;;;16.21;73.57
68807;BME280;55800;54.272;18.558;2022-10-18T08:49:53;101690.72;;;16.26;73.61
68807;BME280;55800;54.272;18.558;2022-10-18T08:52:30;101695.13;;;16.27;73.40
68807;BME280;55800;54.272;18.558;2022-10-18T08:55:03;101704.91;;;16.29;73.53
68807;BME280;55800;54.272;18.558;2022-10-18T08:57:35;101709.22;;;16.33;73.42
68807;BME280;55800;54.272;18.558;2022-10-18T09:00:07;101707.31;;;16.35;73.44
68807;BME280;55800;54.272;18.558;2022-10-18T09:02:56;101707.19;;;16.38;72.99
68807;BME280;55800;54.272;18.558;2022-10-18T09:05:33;101708.78;;;16.42;73.06
68807;BME280;55800;54.272;18.558;2022-10-18T09:08:30;101695.19;;;16.44;73.25
68807;BME280;55800;54.272;18.558;2022-10-18T09:11:14;101685.06;;;16.49;73.04
68807;BME280;55800;54.272;18.558;2022-10-18T09:17:16;101700.03;;;16.56;72.83
68807;BME280;55800;54.272;18.558;2022-10-18T09:20:01;101703.53;;;16.58;72.51
68807;BME280;55800;54.272;18.558;2022-10-18T09:22:42;101689.06;;;16.59;72.50
68807;BME280;55800;54.272;18.558;2022-10-18T09:25:18;101687.19;;;16.61;72.54
68807;BME280;55800;54.272;18.558;2022-10-18T09:27:52;101694.34;;;16.62;72.68
68807;BME280;55800;54.272;18.558;2022-10-18T09:30:30;101694.16;;;16.65;72.51
68807;BME280;55800;54.272;18.558;2022-10-18T09:33:15;101686.81;;;16.69;71.82
68807;BME280;55800;54.272;18.558;2022-10-18T09:35:53;101695.75;;;16.69;71.86
68807;BME280;55800;54.272;18.558;2022-10-18T09:38:27;101691.94;;;16.73;71.50
68807;BME280;55800;54.272;18.558;2022-10-18T09:41:09;101688.44;;;16.71;71.92
68807;BME280;55800;54.272;18.558;2022-10-18T09:43:48;101684.81;;;16.72;71.98
68807;BME280;55800;54.272;18.558;2022-10-18T09:46:20;101682.91;;;16.74;71.97
68807;BME280;55800;54.272;18.558;2022-10-18T09:48:53;101677.38;;;16.77;72.08
68807;BME280;55800;54.272;18.558;2022-10-18T09:51:29;101676.31;;;16.80;72.17
68807;BME280;55800;54.272;18.558;2022-10-18T09:54:16;101669.75;;;16.85;72.17
68807;BME280;55800;54.272;18.558;2022-10-18T09:56:50;101678.31;;;16.93;71.64
68807;BME280;55800;54.272;18.558;2022-10-18T09:59:31;101668.41;;;16.94;71.74
68807;BME280;55800;54.272;18.558;2022-10-18T10:02:02;101667.38;;;16.96;71.96
68807;BME280;55800;54.272;18.558;2022-10-18T10:04:31;101674.38;;;17.00;71.70
68807;BME280;55800;54.272;18.558;2022-10-18T10:07:02;101677.69;;;17.05;71.60
68807;BME280;55800;54.272;18.558;2022-10-18T10:09:40;101676.75;;;17.06;71.43
68807;BME280;55800;54.272;18.558;2022-10-18T10:12:25;101669.19;;;17.13;70.85
68807;BME280;55800;54.272;18.558;2022-10-18T10:15:11;101670.94;;;17.14;71.06
68807;BME280;55800;54.272;18.558;2022-10-18T10:17:54;101669.91;;;17.16;70.47
68807;BME280;55800;54.272;18.558;2022-10-18T10:20:29;101668.16;;;17.15;69.99
68807;BME280;55800;54.272;18.558;2022-10-18T10:23:08;101670.03;;;17.13;69.47
68807;BME280;55800;54.272;18.558;2022-10-18T10:25:42;101663.84;;;17.11;69.97
68807;BME280;55800;54.272;18.558;2022-10-18T10:28:14;101671.09;;;17.11;69.90
68807;BME280;55800;54.272;18.558;2022-10-18T10:30:44;101671.16;;;17.09;69.70
68807;BME280;55800;54.272;18.558;2022-10-18T10:33:31;101677.53;;;17.08;69.94
68807;BME280;55800;54.272;18.558;2022-10-18T10:36:03;101677.53;;;17.08;69.50
68807;BME280;55800;54.272;18.558;2022-10-18T10:38:35;101675.63;;;17.10;69.28
68807;BME280;55800;54.272;18.558;2022-10-18T10:41:04;101677.34;;;17.11;68.63
68807;BME280;55800;54.272;18.558;2022-10-18T10:43:45;101679.13;;;17.12;68.90
68807;BME280;55800;54.272;18.558;2022-10-18T10:46:15;101668.31;;;17.12;68.07
68807;BME280;55800;54.272;18.558;2022-10-18T10:48:50;101675.31;;;17.16;68.17
68807;BME280;55800;54.272;18.558;2022-10-18T10:51:40;101665.38;;;17.17;68.13
68807;BME280;55800;54.272;18.558;2022-10-18T10:54:15;101658.22;;;17.16;68.11
68807;BME280;55800;54.272;18.558;2022-10-18T10:56:53;101665.28;;;17.18;67.69
68807;BME280;55800;54.272;18.558;2022-10-18T10:59:24;101669.75;;;17.20;66.63
68807;BME280;55800;54.272;18.558;2022-10-18T11:02:18;101667.97;;;17.18;67.81
68807;BME280;55800;54.272;18.558;2022-10-18T11:04:50;101668.88;;;17.19;67.13
68807;BME280;55800;54.272;18.558;2022-10-18T11:07:22;101669.66;;;17.21;67.04
68807;BME280;55800;54.272;18.558;2022-10-18T11:09:58;101653.34;;;17.23;66.83
68807;BME280;55800;54.272;18.558;2022-10-18T11:12:35;101658.84;;;17.21;66.36
68807;BME280;55800;54.272;18.558;2022-10-18T11:15:16;101650.84;;;17.20;66.20
68807;BME280;55800;54.272;18.558;2022-10-18T11:17:58;101643.66;;;17.18;66.09
68807;BME280;55800;54.272;18.558;2022-10-18T11:20:32;101642.00;;;17.16;66.47
68807;BME280;55800;54.272;18.558;2022-10-18T11:23:07;101641.28;;;17.12;67.08
68807;BME280;55800;54.272;18.558;2022-10-18T11:26:06;101639.53;;;17.11;66.89
68807;BME280;55800;54.272;18.558;2022-10-18T11:28:52;101645.91;;;17.10;66.95
68807;BME280;55800;54.272;18.558;2022-10-18T11:31:29;101636.91;;;17.10;66.92
68807;BME280;55800;54.272;18.558;2022-10-18T11:34:20;101640.50;;;17.10;66.78
68807;BME280;55800;54.272;18.558;2022-10-18T11:36:57;101639.72;;;17.08;66.79
68807;BME280;55800;54.272;18.558;2022-10-18T11:39:54;101639.72;;;17.08;66.64
68807;BME280;55800;54.272;18.558;2022-10-18T11:42:33;101628.91;;;17.08;65.92
68807;BME280;55800;54.272;18.558;2022-10-18T11:45:17;101625.50;;;17.05;65.96
68807;BME280;55800;54.272;18.558;2022-10-18T11:47:56;101622.84;;;17.03;65.68
68807;BME280;55800;54.272;18.558;2022-10-18T11:50:32;101617.69;;;16.99;65.70
68807;BME280;55800;54.272;18.558;2022-10-18T11:53:14;101615.22;;;16.94;66.22
68807;BME280;55800;54.272;18.558;2022-10-18T11:55:56;101616.28;;;16.92;65.96
68807;BME280;55800;54.272;18.558;2022-10-18T11:58:41;101602.81;;;16.90;65.59
68807;BME280;55800;54.272;18.558;2022-10-18T12:01:24;101606.50;;;16.89;65.74
68807;BME280;55800;54.272;18.558;2022-10-18T12:04:01;101601.44;;;16.83;66.23
68807;BME280;55800;54.272;18.558;2022-10-18T12:06:36;101595.13;;;16.83;66.00
68807;BME280;55800;54.272;18.558;2022-10-18T12:09:13;101592.53;;;16.81;66.02
68807;BME280;55800;54.272;18.558;2022-10-18T12:11:51;101601.66;;;16.79;66.03
68807;BME280;55800;54.272;18.558;2022-10-18T12:14:28;101592.84;;;16.75;65.98
68807;BME280;55800;54.272;18.558;2022-10-18T12:17:02;101593.00;;;16.72;66.15
68807;BME280;55800;54.272;18.558;2022-10-18T12:19:54;101582.44;;;16.68;66.09
68807;BME280;55800;54.272;18.558;2022-10-18T12:22:31;101577.25;;;16.63;66.53
68807;BME280;55800;54.272;18.558;2022-10-18T12:25:03;101576.47;;;16.61;66.32
68807;BME280;55800;54.272;18.558;2022-10-18T12:27:40;101569.47;;;16.57;66.51
68807;BME280;55800;54.272;18.558;2022-10-18T12:30:19;101567.81;;;16.55;66.47
68807;BME280;55800;54.272;18.558;2022-10-18T12:33:04;101565.28;;;16.52;66.87
68807;BME280;55800;54.272;18.558;2022-10-18T12:36:01;101563.66;;;16.48;66.92
68807;BME280;55800;54.272;18.558;2022-10-18T12:38:34;101566.41;;;16.46;67.07
68807;BME280;55800;54.272;18.558;2022-10-18T12:41:05;101572.94;;;16.42;67.03
68807;BME280;55800;54.272;18.558;2022-10-18T12:43:34;101566.72;;;16.40;66.84
68807;BME280;55800;54.272;18.558;2022-10-18T12:46:07;101574.13;;;16.36;67.15
68807;BME280;55800;54.272;18.558;2022-10-18T12:48:41;101565.28;;;16.33;67.19
68807;BME280;55800;54.272;18.558;2022-10-18T12:51:14;101557.38;;;16.30;67.12
68807;BME280;55800;54.272;18.558;2022-10-18T12:53:45;101567.44;;;16.26;67.28
68807;BME280;55800;54.272;18.558;2022-10-18T12:56:37;101564.81;;;16.25;67.05
68807;BME280;55800;54.272;18.558;2022-10-18T13:02:27;101541.94;;;16.15;67.42
68807;BME280;55800;54.272;18.558;2022-10-18T13:04:58;101539.38;;;16.12;67.26
68807;BME280;55800;54.272;18.558;2022-10-18T13:07:38;101538.75;;;16.07;67.18
68807;BME280;55800;54.272;18.558;2022-10-18T13:10:38;101544.28;;;16.04;67.25
68807;BME280;55800;54.272;18.558;2022-10-18T13:13:46;101541.81;;;15.99;67.49
68807;BME280;55800;54.272;18.558;2022-10-18T13:16:34;101537.47;;;15.97;67.53
68807;BME280;55800;54.272;18.558;2022-10-18T13:19:20;101537.63;;;15.94;67.42
68807;BME280;55800;54.272;18.558;2022-10-18T13:22:08;101535.94;;;15.91;67.32
68807;BME280;55800;54.272;18.558;2022-10-18T13:24:44;101542.44;;;15.87;67.65
68807;BME280;55800;54.272;18.558;2022-10-18T13:27:26;101541.63;;;15.85;67.47
68807;BME280;55800;54.272;18.558;2022-10-18T13:30:40;101539.06;;;15.82;67.77